Hopkins Park, IL

12:06 PM CDT on May 23, 2015 (GMT -0500)
Gary / Chicago | | Change Station
CLOSE
Current Station
Airport
Location: Gary,
Elevation: 591 ft
Nearby Weather Stations

Elev 591 ft 41.62 °N, 87.41 °W | Updated 21 minutes ago

Clear
Clear
75 °F
Feels Like 75 °F
N
14
Wind Variable Wind from SSE

Today
High -- | Low -- °F
--% Chance of Precip.
Yesterday
High -- | Low -- °F
Precip. -- in
5:25 AM 8:09 PM
Waxing Crescent, 31% visible
Pressure 30.32 in
Visibility 15.0 miles
Clouds Few 25000 ft
Dew Point 43 °F
Humidity 31%
Rainfall 0.00 in
Snow Depth Not available.
UV 10 out of 12
Pollen 7.80 out of 12
Air Quality Not available.
Flu Activity Sporadic
METAR KGYY 231645Z 16012KT 15SM FEW250 24/06 A3032

More Conditions Fewer Conditions

Pressure 30.32 in
Visibility 15.0 miles
Clouds Few 25000 ft
Dew Point 43 °F
Humidity 31%
Rainfall 0.00 in
Snow Depth Not available.
UV 10 out of 12
Pollen 7.80 out of 12
Air Quality Not available.
Flu Activity Sporadic
METAR KGYY 231645Z 16012KT 15SM FEW250 24/06 A3032

More Conditions Fewer Conditions

10-Day Weather Forecast

Almanac

Astronomy

May. 23, 2015 Rise Set
Actual Time
Civil Twilight
Nautical Twilight
Astronomical Twilight
Moon
Length of Visible Light
Length of Day
Tomorrow will be .
, % of the Moon is Illuminated

Today's Extremes

State Highs State Lows

Community

WunderPhotos

Upload Photos

1,823,519 photos uploaded!

WunderBlogs® & News

Nearby

Air Quality

  Air Quality AQ Index Pollutant
Not available.

Snow Depth

Station Depth Elevation

Earthquake Activity

City Distance Mag. Time & Date
Minimum magnitude displayed is 2.5.

Coastal Water Temperatures

Place Temperature

Stations

Nearby Weather Stations

Station Location Temp. Windchill Dew Point Humidity Wind Precip. Elev Updated Type